sensor_id;sensor_type;location;lat;lon;timestamp;pressure;altitude;pressure_sealevel;temperature;humidity
41246;BME280;53880;47.526;18.986;2023-04-23T00:00:24;99523.44;;;21.41;44.75
41246;BME280;53880;47.526;18.986;2023-04-23T00:03:07;99528.78;;;21.41;44.82
41246;BME280;53880;47.526;18.986;2023-04-23T00:05:31;99527.09;;;21.40;44.96
41246;BME280;53880;47.526;18.986;2023-04-23T00:07:49;99517.56;;;21.38;44.90
41246;BME280;53880;47.526;18.986;2023-04-23T00:10:09;99522.78;;;21.39;44.70
41246;BME280;53880;47.526;18.986;2023-04-23T00:12:25;99531.81;;;21.38;44.88
41246;BME280;53880;47.526;18.986;2023-04-23T00:14:46;99525.59;;;21.38;44.73
41246;BME280;53880;47.526;18.986;2023-04-23T00:17:04;99528.47;;;21.36;44.86
41246;BME280;53880;47.526;18.986;2023-04-23T00:19:24;99528.47;;;21.36;44.94
41246;BME280;53880;47.526;18.986;2023-04-23T00:21:41;99517.94;;;21.35;44.89
41246;BME280;53880;47.526;18.986;2023-04-23T00:24:02;99520.78;;;21.33;44.97
41246;BME280;53880;47.526;18.986;2023-04-23T00:26:22;99520.13;;;21.31;44.97
41246;BME280;53880;47.526;18.986;2023-04-23T00:28:39;99519.31;;;21.31;44.84
41246;BME280;53880;47.526;18.986;2023-04-23T00:30:56;99521.16;;;21.30;44.91
41246;BME280;53880;47.526;18.986;2023-04-23T00:33:14;99523.81;;;21.30;44.85
41246;BME280;53880;47.526;18.986;2023-04-23T00:35:32;99515.13;;;21.28;44.88
41246;BME280;53880;47.526;18.986;2023-04-23T00:37:47;99505.41;;;21.27;44.86
41246;BME280;53880;47.526;18.986;2023-04-23T00:40:02;99507.44;;;21.25;44.79
41246;BME280;53880;47.526;18.986;2023-04-23T00:42:18;99509.13;;;21.26;44.87
41246;BME280;53880;47.526;18.986;2023-04-23T00:44:39;99510.28;;;21.23;44.98
41246;BME280;53880;47.526;18.986;2023-04-23T00:47:05;99517.47;;;21.23;44.93
41246;BME280;53880;47.526;18.986;2023-04-23T00:49:22;99510.09;;;21.25;44.98
41246;BME280;53880;47.526;18.986;2023-04-23T00:51:40;99509.25;;;21.24;44.69
41246;BME280;53880;47.526;18.986;2023-04-23T00:53:55;99516.50;;;21.24;44.74
41246;BME280;53880;47.526;18.986;2023-04-23T00:56:13;99506.94;;;21.21;44.72
41246;BME280;53880;47.526;18.986;2023-04-23T00:58:34;99513.13;;;21.22;44.88
41246;BME280;53880;47.526;18.986;2023-04-23T01:00:52;99520.34;;;21.21;44.75
41246;BME280;53880;47.526;18.986;2023-04-23T01:03:07;99509.63;;;21.21;44.67
41246;BME280;53880;47.526;18.986;2023-04-23T01:05:25;99508.78;;;21.21;44.64
41246;BME280;53880;47.526;18.986;2023-04-23T01:07:45;99508.97;;;21.19;44.61
41246;BME280;53880;47.526;18.986;2023-04-23T01:10:02;99504.44;;;21.20;44.90
41246;BME280;53880;47.526;18.986;2023-04-23T01:12:25;99506.44;;;21.18;44.61
41246;BME280;53880;47.526;18.986;2023-04-23T01:14:46;99503.78;;;21.18;44.76
41246;BME280;53880;47.526;18.986;2023-04-23T01:17:07;99504.78;;;21.17;44.56
41246;BME280;53880;47.526;18.986;2023-04-23T01:19:28;99503.09;;;21.16;44.54
41246;BME280;53880;47.526;18.986;2023-04-23T01:21:43;99501.47;;;21.15;44.58
41246;BME280;53880;47.526;18.986;2023-04-23T01:23:59;99504.28;;;21.13;44.58
41246;BME280;53880;47.526;18.986;2023-04-23T01:26:17;99501.13;;;21.10;44.16
41246;BME280;53880;47.526;18.986;2023-04-23T01:28:37;99499.63;;;21.07;43.94
41246;BME280;53880;47.526;18.986;2023-04-23T01:30:55;99497.97;;;21.06;43.97
41246;BME280;53880;47.526;18.986;2023-04-23T01:33:12;99497.16;;;21.06;44.37
41246;BME280;53880;47.526;18.986;2023-04-23T01:35:30;99497.16;;;21.06;44.24
41246;BME280;53880;47.526;18.986;2023-04-23T01:37:50;99496.97;;;21.07;44.75
41246;BME280;53880;47.526;18.986;2023-04-23T01:40:08;99498.78;;;21.07;44.46
41246;BME280;53880;47.526;18.986;2023-04-23T01:42:29;99492.63;;;21.06;44.72
41246;BME280;53880;47.526;18.986;2023-04-23T01:44:51;99496.31;;;21.05;44.69
41246;BME280;53880;47.526;18.986;2023-04-23T01:47:07;99490.75;;;21.07;44.59
41246;BME280;53880;47.526;18.986;2023-04-23T01:49:25;99495.31;;;21.06;44.63
41246;BME280;53880;47.526;18.986;2023-04-23T01:51:42;99491.59;;;21.07;44.53
41246;BME280;53880;47.526;18.986;2023-04-23T01:53:57;99493.44;;;21.07;44.74
41246;BME280;53880;47.526;18.986;2023-04-23T01:56:17;99493.44;;;21.07;44.60
41246;BME280;53880;47.526;18.986;2023-04-23T01:58:38;99486.25;;;21.07;44.63
41246;BME280;53880;47.526;18.986;2023-04-23T02:00:53;99481.91;;;21.06;44.85
41246;BME280;53880;47.526;18.986;2023-04-23T02:03:13;99488.06;;;21.07;44.68
41246;BME280;53880;47.526;18.986;2023-04-23T02:05:34;99481.06;;;21.06;44.86
41246;BME280;53880;47.526;18.986;2023-04-23T02:07:51;99489.09;;;21.06;44.76
41246;BME280;53880;47.526;18.986;2023-04-23T02:10:08;99486.44;;;21.06;44.89
41246;BME280;53880;47.526;18.986;2023-04-23T02:12:24;99490.09;;;21.05;44.93
41246;BME280;53880;47.526;18.986;2023-04-23T02:14:45;99490.09;;;21.05;44.72
41246;BME280;53880;47.526;18.986;2023-04-23T02:17:04;99488.44;;;21.04;44.88
41246;BME280;53880;47.526;18.986;2023-04-23T02:19:22;99486.75;;;21.03;44.86
41246;BME280;53880;47.526;18.986;2023-04-23T02:21:43;99484.94;;;21.03;44.90
41246;BME280;53880;47.526;18.986;2023-04-23T02:23:58;99482.25;;;21.03;44.92
41246;BME280;53880;47.526;18.986;2023-04-23T02:26:18;99485.91;;;21.02;45.10
41246;BME280;53880;47.526;18.986;2023-04-23T02:28:36;99486.75;;;21.03;45.14
41246;BME280;53880;47.526;18.986;2023-04-23T02:30:58;99479.91;;;21.00;45.35
41246;BME280;53880;47.526;18.986;2023-04-23T02:33:14;99485.25;;;21.00;45.19
41246;BME280;53880;47.526;18.986;2023-04-23T02:35:31;99472.88;;;20.99;45.26
41246;BME280;53880;47.526;18.986;2023-04-23T02:37:46;99480.91;;;20.99;45.42
41246;BME280;53880;47.526;18.986;2023-04-23T02:40:04;99480.06;;;20.99;45.46
41246;BME280;53880;47.526;18.986;2023-04-23T02:42:20;99475.72;;;20.98;45.28
41246;BME280;53880;47.526;18.986;2023-04-23T02:44:35;99478.41;;;20.98;45.22
41246;BME280;53880;47.526;18.986;2023-04-23T02:46:55;99471.38;;;20.97;45.22
41246;BME280;53880;47.526;18.986;2023-04-23T02:49:12;99475.06;;;20.96;45.33
41246;BME280;53880;47.526;18.986;2023-04-23T02:51:31;99476.72;;;20.97;45.51
41246;BME280;53880;47.526;18.986;2023-04-23T02:53:54;99480.44;;;20.96;45.26
41246;BME280;53880;47.526;18.986;2023-04-23T02:56:13;99472.53;;;20.94;45.44
41246;BME280;53880;47.526;18.986;2023-04-23T02:58:31;99470.72;;;20.95;45.48
41246;BME280;53880;47.526;18.986;2023-04-23T03:00:51;99470.91;;;20.93;45.44
41246;BME280;53880;47.526;18.986;2023-04-23T03:03:09;99469.88;;;20.94;45.44
41246;BME280;53880;47.526;18.986;2023-04-23T03:05:26;99470.06;;;20.93;45.30
41246;BME280;53880;47.526;18.986;2023-04-23T03:07:43;99470.06;;;20.93;45.53
41246;BME280;53880;47.526;18.986;2023-04-23T03:10:03;99463.00;;;20.92;45.55
41246;BME280;53880;47.526;18.986;2023-04-23T03:12:21;99470.22;;;20.91;45.52
41246;BME280;53880;47.526;18.986;2023-04-23T03:14:39;99469.41;;;20.91;45.54
41246;BME280;53880;47.526;18.986;2023-04-23T03:16:54;99469.41;;;20.91;45.53
41246;BME280;53880;47.526;18.986;2023-04-23T03:19:13;99463.19;;;20.90;45.50
41246;BME280;53880;47.526;18.986;2023-04-23T03:21:29;99471.03;;;20.92;45.36
41246;BME280;53880;47.526;18.986;2023-04-23T03:23:46;99473.06;;;20.90;45.38
41246;BME280;53880;47.526;18.986;2023-04-23T03:26:04;99466.91;;;20.89;45.51
41246;BME280;53880;47.526;18.986;2023-04-23T03:28:20;99473.91;;;20.90;45.58
41246;BME280;53880;47.526;18.986;2023-04-23T03:30:40;99470.38;;;20.90;45.56
41246;BME280;53880;47.526;18.986;2023-04-23T03:32:58;99467.88;;;20.88;45.64
41246;BME280;53880;47.526;18.986;2023-04-23T03:35:15;99474.94;;;20.89;45.72
41246;BME280;53880;47.526;18.986;2023-04-23T03:37:35;99474.09;;;20.89;45.51
41246;BME280;53880;47.526;18.986;2023-04-23T03:39:54;99475.09;;;20.88;45.49
41246;BME280;53880;47.526;18.986;2023-04-23T03:42:17;99471.59;;;20.87;45.74
41246;BME280;53880;47.526;18.986;2023-04-23T03:44:35;99476.09;;;20.87;45.54
41246;BME280;53880;47.526;18.986;2023-04-23T03:46:54;99474.41;;;20.86;45.73
41246;BME280;53880;47.526;18.986;2023-04-23T03:49:14;99473.63;;;20.85;45.63
41246;BME280;53880;47.526;18.986;2023-04-23T03:51:29;99475.44;;;20.85;45.54
41246;BME280;53880;47.526;18.986;2023-04-23T03:53:47;99468.41;;;20.84;45.76
41246;BME280;53880;47.526;18.986;2023-04-23T03:56:22;99473.75;;;20.84;45.79
41246;BME280;53880;47.526;18.986;2023-04-23T03:58:50;99468.59;;;20.82;45.84
41246;BME280;53880;47.526;18.986;2023-04-23T04:01:09;99471.28;;;20.82;45.93
41246;BME280;53880;47.526;18.986;2023-04-23T04:03:31;99472.25;;;20.81;45.91
41246;BME280;53880;47.526;18.986;2023-04-23T04:05:48;99473.09;;;20.82;45.72
41246;BME280;53880;47.526;18.986;2023-04-23T04:08:03;99479.47;;;20.81;45.93
41246;BME280;53880;47.526;18.986;2023-04-23T04:10:19;99473.28;;;20.80;45.81
41246;BME280;53880;47.526;18.986;2023-04-23T04:12:34;99481.13;;;20.82;45.68
41246;BME280;53880;47.526;18.986;2023-04-23T04:14:50;99484.84;;;20.81;46.00
41246;BME280;53880;47.526;18.986;2023-04-23T04:17:13;99488.50;;;20.80;45.91
41246;BME280;53880;47.526;18.986;2023-04-23T04:19:30;99490.34;;;20.79;45.88
41246;BME280;53880;47.526;18.986;2023-04-23T04:21:50;99492.22;;;20.79;45.92
41246;BME280;53880;47.526;18.986;2023-04-23T04:24:07;99491.38;;;20.78;45.73
41246;BME280;53880;47.526;18.986;2023-04-23T04:26:27;99494.69;;;20.80;45.71
41246;BME280;53880;47.526;18.986;2023-04-23T04:28:45;99499.22;;;20.80;45.91
41246;BME280;53880;47.526;18.986;2023-04-23T04:31:01;99495.69;;;20.79;45.77
41246;BME280;53880;47.526;18.986;2023-04-23T04:33:19;99500.91;;;20.81;45.73
41246;BME280;53880;47.526;18.986;2023-04-23T04:35:34;99500.06;;;20.80;45.76
41246;BME280;53880;47.526;18.986;2023-04-23T04:37:57;99497.38;;;20.80;45.67
41246;BME280;53880;47.526;18.986;2023-04-23T04:40:12;99498.22;;;20.81;45.74
41246;BME280;53880;47.526;18.986;2023-04-23T04:42:30;99505.41;;;20.80;45.97
41246;BME280;53880;47.526;18.986;2023-04-23T04:44:47;99505.59;;;20.79;45.84
41246;BME280;53880;47.526;18.986;2023-04-23T04:47:05;99506.41;;;20.79;45.99
41246;BME280;53880;47.526;18.986;2023-04-23T04:49:25;99508.28;;;20.79;46.08
41246;BME280;53880;47.526;18.986;2023-04-23T04:51:43;99506.41;;;20.79;45.96
41246;BME280;53880;47.526;18.986;2023-04-23T04:54:06;99511.75;;;20.79;45.94
41246;BME280;53880;47.526;18.986;2023-04-23T04:56:24;99504.56;;;20.80;46.03
41246;BME280;53880;47.526;18.986;2023-04-23T04:58:44;99507.44;;;20.78;45.88
41246;BME280;53880;47.526;18.986;2023-04-23T05:01:01;99511.75;;;20.79;45.82
41246;BME280;53880;47.526;18.986;2023-04-23T05:03:19;99512.59;;;20.80;45.87
41246;BME280;53880;47.526;18.986;2023-04-23T05:05:40;99511.44;;;20.82;45.98
41246;BME280;53880;47.526;18.986;2023-04-23T05:08:03;99514.94;;;20.83;46.07
41246;BME280;53880;47.526;18.986;2023-04-23T05:10:19;99517.91;;;20.88;45.73
41246;BME280;53880;47.526;18.986;2023-04-23T05:12:39;99513.75;;;20.93;45.94
41246;BME280;53880;47.526;18.986;2023-04-23T05:14:57;99520.06;;;21.00;45.60
41246;BME280;53880;47.526;18.986;2023-04-23T05:17:17;99511.19;;;21.08;45.41
41246;BME280;53880;47.526;18.986;2023-04-23T05:19:42;99514.47;;;21.18;45.27
41246;BME280;53880;47.526;18.986;2023-04-23T05:22:04;99514.75;;;21.31;45.23
41246;BME280;53880;47.526;18.986;2023-04-23T05:24:24;99518.06;;;21.41;45.02
41246;BME280;53880;47.526;18.986;2023-04-23T05:26:42;99509.78;;;21.51;45.07
41246;BME280;53880;47.526;18.986;2023-04-23T05:29:00;99514.09;;;21.60;44.92
41246;BME280;53880;47.526;18.986;2023-04-23T05:31:20;99512.38;;;21.67;44.67
41246;BME280;53880;47.526;18.986;2023-04-23T05:33:43;99516.19;;;21.72;44.92
41246;BME280;53880;47.526;18.986;2023-04-23T05:35:58;99510.28;;;21.77;44.92
41246;BME280;53880;47.526;18.986;2023-04-23T05:38:16;99510.75;;;21.80;44.83
41246;BME280;53880;47.526;18.986;2023-04-23T05:40:33;99506.09;;;21.82;44.85
41246;BME280;53880;47.526;18.986;2023-04-23T05:42:48;99512.94;;;21.85;45.02
41246;BME280;53880;47.526;18.986;2023-04-23T05:45:07;99512.78;;;21.86;44.86
41246;BME280;53880;47.526;18.986;2023-04-23T05:47:24;99507.41;;;21.86;44.98
41246;BME280;53880;47.526;18.986;2023-04-23T05:49:42;99509.91;;;21.88;44.87
41246;BME280;53880;47.526;18.986;2023-04-23T05:52:00;99512.59;;;21.88;45.18
41246;BME280;53880;47.526;18.986;2023-04-23T05:54:17;99511.75;;;21.87;45.01
41246;BME280;53880;47.526;18.986;2023-04-23T05:56:33;99515.28;;;21.88;45.05
41246;BME280;53880;47.526;18.986;2023-04-23T05:58:52;99516.13;;;21.88;45.30
41246;BME280;53880;47.526;18.986;2023-04-23T06:01:08;99519.78;;;21.87;45.13
41246;BME280;53880;47.526;18.986;2023-04-23T06:03:23;99516.13;;;21.88;45.31
41246;BME280;53880;47.526;18.986;2023-04-23T06:05:42;99521.63;;;21.87;45.26
41246;BME280;53880;47.526;18.986;2023-04-23T06:07:57;99524.31;;;21.87;45.37
41246;BME280;53880;47.526;18.986;2023-04-23T06:10:17;99517.13;;;21.87;45.46
41246;BME280;53880;47.526;18.986;2023-04-23T06:12:35;99521.63;;;21.87;45.57
41246;BME280;53880;47.526;18.986;2023-04-23T06:14:53;99527.00;;;21.87;45.54
41246;BME280;53880;47.526;18.986;2023-04-23T06:17:13;99530.72;;;21.86;45.51
41246;BME280;53880;47.526;18.986;2023-04-23T06:19:28;99525.34;;;21.86;45.57
41246;BME280;53880;47.526;18.986;2023-04-23T06:21:49;99519.97;;;21.86;45.63
41246;BME280;53880;47.526;18.986;2023-04-23T06:24:05;99522.66;;;21.86;45.55
41246;BME280;53880;47.526;18.986;2023-04-23T06:26:21;99532.38;;;21.87;45.61
41246;BME280;53880;47.526;18.986;2023-04-23T06:28:41;99535.03;;;21.87;45.50
41246;BME280;53880;47.526;18.986;2023-04-23T06:31:28;99531.56;;;21.86;45.39
41246;BME280;53880;47.526;18.986;2023-04-23T06:33:43;99526.19;;;21.86;45.31
41246;BME280;53880;47.526;18.986;2023-04-23T06:36:00;99532.56;;;21.85;45.41
41246;BME280;53880;47.526;18.986;2023-04-23T06:38:18;99528.03;;;21.86;45.36
41246;BME280;53880;47.526;18.986;2023-04-23T06:40:39;99520.81;;;21.86;45.24
41246;BME280;53880;47.526;18.986;2023-04-23T06:42:54;99527.19;;;21.85;45.38
41246;BME280;53880;47.526;18.986;2023-04-23T06:45:44;99524.31;;;21.87;45.25
41246;BME280;53880;47.526;18.986;2023-04-23T06:47:59;99528.88;;;21.86;45.41
41246;BME280;53880;47.526;18.986;2023-04-23T06:50:20;99528.03;;;21.86;45.18
41246;BME280;53880;47.526;18.986;2023-04-23T06:52:40;99529.88;;;21.85;45.24
41246;BME280;53880;47.526;18.986;2023-04-23T06:54:55;99525.69;;;21.83;45.36
41246;BME280;53880;47.526;18.986;2023-04-23T06:57:12;99524.50;;;21.85;46.45
41246;BME280;53880;47.526;18.986;2023-04-23T06:59:32;99519.16;;;21.85;45.67
41246;BME280;53880;47.526;18.986;2023-04-23T07:01:48;99527.19;;;21.85;45.43
41246;BME280;53880;47.526;18.986;2023-04-23T07:04:08;99529.22;;;21.83;45.32
41246;BME280;53880;47.526;18.986;2023-04-23T07:06:23;99525.00;;;21.81;44.20
41246;BME280;53880;47.526;18.986;2023-04-23T07:08:44;99520.66;;;21.80;43.71
41246;BME280;53880;47.526;18.986;2023-04-23T07:11:00;99516.50;;;21.77;43.54
41246;BME280;53880;47.526;18.986;2023-04-23T07:13:15;99520.19;;;21.76;43.09
41246;BME280;53880;47.526;18.986;2023-04-23T07:15:35;99519.53;;;21.74;42.62
41246;BME280;53880;47.526;18.986;2023-04-23T07:17:53;99517.03;;;21.73;41.84
41246;BME280;53880;47.526;18.986;2023-04-23T07:20:14;99510.81;;;21.72;41.70
41246;BME280;53880;47.526;18.986;2023-04-23T07:22:29;99516.38;;;21.71;41.73
41246;BME280;53880;47.526;18.986;2023-04-23T07:24:49;99509.31;;;21.70;41.63
41246;BME280;53880;47.526;18.986;2023-04-23T07:27:05;99514.03;;;21.68;41.71
41246;BME280;53880;47.526;18.986;2023-04-23T07:29:25;99512.19;;;21.68;41.61
41246;BME280;53880;47.526;18.986;2023-04-23T07:31:45;99508.50;;;21.69;41.64
41246;BME280;53880;47.526;18.986;2023-04-23T07:34:00;99510.34;;;21.69;41.70
41246;BME280;53880;47.526;18.986;2023-04-23T07:36:22;99503.16;;;21.69;41.94
41246;BME280;53880;47.526;18.986;2023-04-23T07:38:37;99508.50;;;21.69;42.19
41246;BME280;53880;47.526;18.986;2023-04-23T07:40:52;99504.16;;;21.68;42.06
41246;BME280;53880;47.526;18.986;2023-04-23T07:43:07;99507.69;;;21.69;41.96
41246;BME280;53880;47.526;18.986;2023-04-23T07:45:25;99509.16;;;21.71;42.16
41246;BME280;53880;47.526;18.986;2023-04-23T07:47:40;99503.16;;;21.69;42.28
41246;BME280;53880;47.526;18.986;2023-04-23T07:49:58;99499.44;;;21.70;42.18
41246;BME280;53880;47.526;18.986;2023-04-23T07:52:16;99511.19;;;21.69;41.97
41246;BME280;53880;47.526;18.986;2023-04-23T07:54:33;99505.00;;;21.69;41.80
41246;BME280;53880;47.526;18.986;2023-04-23T07:56:51;99501.47;;;21.68;41.58
41246;BME280;53880;47.526;18.986;2023-04-23T07:59:08;99504.16;;;21.68;41.62
41246;BME280;53880;47.526;18.986;2023-04-23T08:01:25;99497.94;;;21.68;41.52
41246;BME280;53880;47.526;18.986;2023-04-23T08:03:48;99497.94;;;21.68;41.40
41246;BME280;53880;47.526;18.986;2023-04-23T08:06:03;99502.47;;;21.67;41.39
41246;BME280;53880;47.526;18.986;2023-04-23T08:08:21;99493.63;;;21.67;41.36
41246;BME280;53880;47.526;18.986;2023-04-23T08:10:39;99495.28;;;21.68;41.94
41246;BME280;53880;47.526;18.986;2023-04-23T08:12:57;99495.28;;;21.68;41.87
41246;BME280;53880;47.526;18.986;2023-04-23T08:15:12;99492.78;;;21.66;41.67
41246;BME280;53880;47.526;18.986;2023-04-23T08:17:32;99492.78;;;21.66;41.60
41246;BME280;53880;47.526;18.986;2023-04-23T08:19:47;99490.09;;;21.66;41.80
41246;BME280;53880;47.526;18.986;2023-04-23T08:22:02;99495.47;;;21.66;42.07
41246;BME280;53880;47.526;18.986;2023-04-23T08:24:20;99496.44;;;21.65;42.31
41246;BME280;53880;47.526;18.986;2023-04-23T08:26:38;99491.94;;;21.66;42.37
41246;BME280;53880;47.526;18.986;2023-04-23T08:28:53;99494.81;;;21.64;42.48
41246;BME280;53880;47.526;18.986;2023-04-23T08:31:10;99490.09;;;21.66;42.63
41246;BME280;53880;47.526;18.986;2023-04-23T08:33:28;99489.03;;;21.75;42.38
41246;BME280;53880;47.526;18.986;2023-04-23T08:35:45;99485.16;;;21.78;40.34
41246;BME280;53880;47.526;18.986;2023-04-23T08:38:01;99494.41;;;21.75;40.86
41246;BME280;53880;47.526;18.986;2023-04-23T08:40:16;99483.00;;;21.73;41.39
41246;BME280;53880;47.526;18.986;2023-04-23T08:42:49;99484.66;;;21.74;41.77
41246;BME280;53880;47.526;18.986;2023-04-23T08:45:14;99487.84;;;21.78;41.98
41246;BME280;53880;47.526;18.986;2023-04-23T08:47:32;99488.66;;;21.78;42.54
41246;BME280;53880;47.526;18.986;2023-04-23T08:49:57;99480.59;;;21.78;42.31
41246;BME280;53880;47.526;18.986;2023-04-23T08:52:18;99484.13;;;21.79;42.67
41246;BME280;53880;47.526;18.986;2023-04-23T08:54:44;99479.97;;;21.76;42.98
41246;BME280;53880;47.526;18.986;2023-04-23T08:57:05;99481.81;;;21.76;43.05
41246;BME280;53880;47.526;18.986;2023-04-23T08:59:25;99476.63;;;21.74;42.99
41246;BME280;53880;47.526;18.986;2023-04-23T09:01:42;99480.16;;;21.75;42.77
41246;BME280;53880;47.526;18.986;2023-04-23T09:04:01;99479.31;;;21.74;42.73
41246;BME280;53880;47.526;18.986;2023-04-23T09:06:18;99473.28;;;21.72;42.97
41246;BME280;53880;47.526;18.986;2023-04-23T09:08:37;99467.94;;;21.72;43.02
41246;BME280;53880;47.526;18.986;2023-04-23T09:11:00;99474.31;;;21.71;43.12
41246;BME280;53880;47.526;18.986;2023-04-23T09:13:18;99481.53;;;21.71;43.42
41246;BME280;53880;47.526;18.986;2023-04-23T09:15:36;99472.63;;;21.70;43.37
41246;BME280;53880;47.526;18.986;2023-04-23T09:17:59;99472.63;;;21.70;43.17
41246;BME280;53880;47.526;18.986;2023-04-23T09:20:17;99470.97;;;21.69;43.22
41246;BME280;53880;47.526;18.986;2023-04-23T09:25:02;99466.63;;;21.68;43.58
41246;BME280;53880;47.526;18.986;2023-04-23T09:27:25;99471.13;;;21.68;43.53
41246;BME280;53880;47.526;18.986;2023-04-23T09:29:43;99471.31;;;21.66;43.58
41246;BME280;53880;47.526;18.986;2023-04-23T09:32:08;99466.97;;;21.65;43.66
41246;BME280;53880;47.526;18.986;2023-04-23T09:34:24;99466.97;;;21.65;43.83
41246;BME280;53880;47.526;18.986;2023-04-23T09:36:47;99458.28;;;21.63;44.06
41246;BME280;53880;47.526;18.986;2023-04-23T09:39:14;99460.78;;;21.65;44.17
41246;BME280;53880;47.526;18.986;2023-04-23T09:41:31;99468.84;;;21.65;44.08
41246;BME280;53880;47.526;18.986;2023-04-23T09:43:47;99462.63;;;21.64;44.31
41246;BME280;53880;47.526;18.986;2023-04-23T09:46:02;99455.59;;;21.63;44.37
41246;BME280;53880;47.526;18.986;2023-04-23T09:48:22;99458.28;;;21.63;44.32
41246;BME280;53880;47.526;18.986;2023-04-23T09:50:39;99444.06;;;21.63;44.27
41246;BME280;53880;47.526;18.986;2023-04-23T09:52:57;99452.91;;;21.63;44.45
41246;BME280;53880;47.526;18.986;2023-04-23T09:55:12;99456.63;;;21.62;44.64
41246;BME280;53880;47.526;18.986;2023-04-23T09:57:28;99459.28;;;21.62;44.53
41246;BME280;53880;47.526;18.986;2023-04-23T09:59:46;99448.75;;;21.61;44.48
41246;BME280;53880;47.526;18.986;2023-04-23T10:02:06;99446.09;;;21.61;44.85
41246;BME280;53880;47.526;18.986;2023-04-23T10:04:24;99446.25;;;21.59;44.70
41246;BME280;53880;47.526;18.986;2023-04-23T10:06:46;99447.28;;;21.58;44.81
41246;BME280;53880;47.526;18.986;2023-04-23T10:09:04;99438.19;;;21.59;44.61
41246;BME280;53880;47.526;18.986;2023-04-23T10:11:23;99429.31;;;21.59;44.65
41246;BME280;53880;47.526;18.986;2023-04-23T10:13:43;99434.69;;;21.59;44.78
41246;BME280;53880;47.526;18.986;2023-04-23T10:16:00;99429.50;;;21.57;44.90
41246;BME280;53880;47.526;18.986;2023-04-23T10:18:19;99431.34;;;21.57;44.86
41246;BME280;53880;47.526;18.986;2023-04-23T10:20:38;99431.53;;;21.55;44.94
41246;BME280;53880;47.526;18.986;2023-04-23T10:22:56;99427.19;;;21.54;45.07
41246;BME280;53880;47.526;18.986;2023-04-23T10:25:19;99429.88;;;21.54;44.98
41246;BME280;53880;47.526;18.986;2023-04-23T10:27:39;99422.00;;;21.53;45.04
41246;BME280;53880;47.526;18.986;2023-04-23T10:29:56;99422.84;;;21.53;45.24
41246;BME280;53880;47.526;18.986;2023-04-23T10:32:14;99419.31;;;21.53;45.17
41246;BME280;53880;47.526;18.986;2023-04-23T10:34:32;99419.31;;;21.53;45.26
41246;BME280;53880;47.526;18.986;2023-04-23T10:36:50;99423.84;;;21.52;45.17
41246;BME280;53880;47.526;18.986;2023-04-23T10:39:06;99419.50;;;21.51;45.12
41246;BME280;53880;47.526;18.986;2023-04-23T10:41:27;99425.88;;;21.50;45.35
41246;BME280;53880;47.526;18.986;2023-04-23T10:43:43;99423.38;;;21.49;45.17
41246;BME280;53880;47.526;18.986;2023-04-23T10:45:59;99417.16;;;21.48;45.44
41246;BME280;53880;47.526;18.986;2023-04-23T10:48:15;99411.81;;;21.48;45.25
41246;BME280;53880;47.526;18.986;2023-04-23T10:50:35;99417.16;;;21.48;45.29
41246;BME280;53880;47.526;18.986;2023-04-23T10:52:56;99405.63;;;21.48;45.44
41246;BME280;53880;47.526;18.986;2023-04-23T10:55:20;99405.63;;;21.48;45.46
41246;BME280;53880;47.526;18.986;2023-04-23T10:57:58;99403.97;;;21.47;45.55
41246;BME280;53880;47.526;18.986;2023-04-23T11:00:17;99403.13;;;21.46;45.37
41246;BME280;53880;47.526;18.986;2023-04-23T11:02:44;99407.66;;;21.46;45.48
41246;BME280;53880;47.526;18.986;2023-04-23T11:05:07;99402.31;;;21.46;45.45
41246;BME280;53880;47.526;18.986;2023-04-23T11:07:32;99405.97;;;21.45;45.41
41246;BME280;53880;47.526;18.986;2023-04-23T11:09:48;99409.50;;;21.45;45.61
41246;BME280;53880;47.526;18.986;2023-04-23T11:12:30;99404.31;;;21.44;45.71
41246;BME280;53880;47.526;18.986;2023-04-23T11:14:50;99405.16;;;21.44;45.49
41246;BME280;53880;47.526;18.986;2023-04-23T11:17:06;99408.00;;;21.43;45.58
41246;BME280;53880;47.526;18.986;2023-04-23T11:19:21;99409.66;;;21.44;45.47
41246;BME280;53880;47.526;18.986;2023-04-23T11:24:18;99390.09;;;21.43;45.62
41246;BME280;53880;47.526;18.986;2023-04-23T11:26:44;99396.25;;;21.44;45.75
41246;BME280;53880;47.526;18.986;2023-04-23T11:29:06;99387.41;;;21.43;45.85
41246;BME280;53880;47.526;18.986;2023-04-23T11:31:25;99382.06;;;21.43;45.92
41246;BME280;53880;47.526;18.986;2023-04-23T11:33:42;99389.25;;;21.43;45.86
41246;BME280;53880;47.526;18.986;2023-04-23T11:36:02;99393.78;;;21.42;46.15
41246;BME280;53880;47.526;18.986;2023-04-23T11:38:19;99390.25;;;21.42;45.97
41246;BME280;53880;47.526;18.986;2023-04-23T11:40:35;99392.78;;;21.43;45.94
41246;BME280;53880;47.526;18.986;2023-04-23T11:42:56;99382.06;;;21.43;45.88
41246;BME280;53880;47.526;18.986;2023-04-23T11:45:26;99383.91;;;21.43;46.05
41246;BME280;53880;47.526;18.986;2023-04-23T11:47:43;99380.38;;;21.42;45.99
41246;BME280;53880;47.526;18.986;2023-04-23T11:50:00;99383.91;;;21.43;46.01
41246;BME280;53880;47.526;18.986;2023-04-23T11:52:17;99375.00;;;21.42;45.93
41246;BME280;53880;47.526;18.986;2023-04-23T11:54:32;99379.53;;;21.42;45.87
41246;BME280;53880;47.526;18.986;2023-04-23T11:56:52;99367.81;;;21.43;46.04
41246;BME280;53880;47.526;18.986;2023-04-23T11:59:10;99367.16;;;21.41;46.00
41246;BME280;53880;47.526;18.986;2023-04-23T12:01:41;99374.16;;;21.42;46.18
41246;BME280;53880;47.526;18.986;2023-04-23T12:03:57;99366.13;;;21.42;45.90
41246;BME280;53880;47.526;18.986;2023-04-23T12:06:16;99363.47;;;21.42;45.88
41246;BME280;53880;47.526;18.986;2023-04-23T12:08:34;99361.63;;;21.42;46.03
41246;BME280;53880;47.526;18.986;2023-04-23T12:11:01;99349.06;;;21.43;45.86